sensor_id;sensor_type;location;lat;lon;timestamp;pressure;altitude;pressure_sealevel;temperature;humidity
69035;BME280;56091;55.756;37.412;2022-10-17T00:04:07;100175.69;;;5.62;61.39
69035;BME280;56091;55.756;37.412;2022-10-17T00:09:08;100160.03;;;5.59;61.55
69035;BME280;56091;55.756;37.412;2022-10-17T00:14:09;100149.94;;;5.61;61.25
69035;BME280;56091;55.756;37.412;2022-10-17T00:19:12;100159.22;;;5.59;61.47
69035;BME280;56091;55.756;37.412;2022-10-17T00:24:13;100136.16;;;5.58;61.77
69035;BME280;56091;55.756;37.412;2022-10-17T00:29:14;100143.34;;;5.57;61.78
69035;BME280;56091;55.756;37.412;2022-10-17T00:34:14;100122.75;;;5.51;61.89
69035;BME280;56091;55.756;37.412;2022-10-17T00:39:15;100124.00;;;5.55;61.89
69035;BME280;56091;55.756;37.412;2022-10-17T00:49:32;100101.72;;;5.41;62.27
69035;BME280;56091;55.756;37.412;2022-10-17T00:54:37;100103.59;;;5.41;62.28
69035;BME280;56091;55.756;37.412;2022-10-17T00:59:41;100089.53;;;5.32;62.69
69035;BME280;56091;55.756;37.412;2022-10-17T01:04:45;100079.22;;;5.29;62.56
69035;BME280;56091;55.756;37.412;2022-10-17T01:09:47;100070.19;;;5.30;62.72
69035;BME280;56091;55.756;37.412;2022-10-17T01:25:50;100061.97;;;5.32;62.91
69035;BME280;56091;55.756;37.412;2022-10-17T01:31:12;100053.09;;;5.31;62.76
69035;BME280;56091;55.756;37.412;2022-10-17T01:41:39;100040.34;;;5.26;62.81
69035;BME280;56091;55.756;37.412;2022-10-17T01:46:48;100023.47;;;5.26;63.22
69035;BME280;56091;55.756;37.412;2022-10-17T01:51:55;99996.69;;;5.19;62.83
69035;BME280;56091;55.756;37.412;2022-10-17T01:57:00;100022.47;;;5.34;62.41
69035;BME280;56091;55.756;37.412;2022-10-17T02:02:04;100005.19;;;5.43;62.37
69035;BME280;56091;55.756;37.412;2022-10-17T02:07:08;100007.66;;;5.38;62.19
69035;BME280;56091;55.756;37.412;2022-10-17T02:28:27;99999.38;;;5.19;63.22
69035;BME280;56091;55.756;37.412;2022-10-17T02:33:34;100018.50;;;5.16;63.52
69035;BME280;56091;55.756;37.412;2022-10-17T02:38:40;100001.63;;;5.16;63.38
69035;BME280;56091;55.756;37.412;2022-10-17T02:43:42;100004.09;;;5.17;63.51
69035;BME280;56091;55.756;37.412;2022-10-17T02:48:49;99979.19;;;5.10;63.77
69035;BME280;56091;55.756;37.412;2022-10-17T02:59:13;99964.38;;;5.07;63.39
69035;BME280;56091;55.756;37.412;2022-10-17T03:04:17;99965.63;;;5.05;63.98
69035;BME280;56091;55.756;37.412;2022-10-17T03:09:19;99968.91;;;5.14;63.81
69035;BME280;56091;55.756;37.412;2022-10-17T03:14:20;99958.81;;;5.09;63.96
69035;BME280;56091;55.756;37.412;2022-10-17T03:19:21;99959.47;;;5.24;63.35
69035;BME280;56091;55.756;37.412;2022-10-17T03:24:22;99936.84;;;5.20;63.47
69035;BME280;56091;55.756;37.412;2022-10-17T03:29:24;99934.59;;;5.24;63.43
69035;BME280;56091;55.756;37.412;2022-10-17T03:34:25;99942.41;;;5.25;63.36
69035;BME280;56091;55.756;37.412;2022-10-17T03:39:26;99928.41;;;5.17;63.71
69035;BME280;56091;55.756;37.412;2022-10-17T03:44:27;99924.91;;;5.16;63.92
69035;BME280;56091;55.756;37.412;2022-10-17T03:49:28;99929.63;;;5.21;63.60
69035;BME280;56091;55.756;37.412;2022-10-17T03:54:29;99893.84;;;5.08;63.62
69035;BME280;56091;55.756;37.412;2022-10-17T03:59:30;99896.72;;;5.20;63.38
69035;BME280;56091;55.756;37.412;2022-10-17T04:04:39;99880.03;;;5.05;63.53
69035;BME280;56091;55.756;37.412;2022-10-17T04:09:40;99921.63;;;5.14;63.72
69035;BME280;56091;55.756;37.412;2022-10-17T04:14:51;99898.13;;;5.03;64.32
69035;BME280;56091;55.756;37.412;2022-10-17T04:19:54;99893.41;;;5.12;64.18
69035;BME280;56091;55.756;37.412;2022-10-17T04:24:56;99883.75;;;5.17;64.00
69035;BME280;56091;55.756;37.412;2022-10-17T04:30:06;99871.19;;;5.24;63.74
69035;BME280;56091;55.756;37.412;2022-10-17T04:35:08;99880.47;;;5.28;63.42
69035;BME280;56091;55.756;37.412;2022-10-17T04:40:09;99858.63;;;5.25;63.32
69035;BME280;56091;55.756;37.412;2022-10-17T04:45:10;99854.53;;;5.29;63.45
69035;BME280;56091;55.756;37.412;2022-10-17T04:50:11;99866.47;;;5.40;63.36
69035;BME280;56091;55.756;37.412;2022-10-17T04:55:14;99860.28;;;5.39;63.19
69035;BME280;56091;55.756;37.412;2022-10-17T05:00:16;99850.81;;;5.50;63.22
69035;BME280;56091;55.756;37.412;2022-10-17T05:05:26;99847.09;;;5.51;62.73
69035;BME280;56091;55.756;37.412;2022-10-17T05:10:29;99852.66;;;5.56;62.81
69035;BME280;56091;55.756;37.412;2022-10-17T05:15:31;99838.84;;;5.66;62.52
69035;BME280;56091;55.756;37.412;2022-10-17T05:20:32;99834.72;;;5.77;62.38
69035;BME280;56091;55.756;37.412;2022-10-17T05:25:34;99817.66;;;5.71;62.06
69035;BME280;56091;55.756;37.412;2022-10-17T05:30:35;99842.91;;;5.89;61.94
69035;BME280;56091;55.756;37.412;2022-10-17T05:35:36;99820.44;;;6.03;61.57
69035;BME280;56091;55.756;37.412;2022-10-17T05:40:37;99827.22;;;6.12;61.05
69035;BME280;56091;55.756;37.412;2022-10-17T05:45:39;99810.41;;;6.37;60.42
69035;BME280;56091;55.756;37.412;2022-10-17T05:50:43;99759.81;;;6.15;60.23
69035;BME280;56091;55.756;37.412;2022-10-17T05:55:57;99788.16;;;6.30;60.50
69035;BME280;56091;55.756;37.412;2022-10-17T06:00:59;99808.97;;;6.34;60.46
69035;BME280;56091;55.756;37.412;2022-10-17T06:06:06;99812.06;;;6.31;60.57
69035;BME280;56091;55.756;37.412;2022-10-17T06:11:10;99834.56;;;6.30;60.74
69035;BME280;56091;55.756;37.412;2022-10-17T06:16:13;99814.34;;;6.34;60.67
69035;BME280;56091;55.756;37.412;2022-10-17T06:21:18;99805.50;;;6.34;60.68
69035;BME280;56091;55.756;37.412;2022-10-17T06:26:23;99810.19;;;6.38;60.70
69035;BME280;56091;55.756;37.412;2022-10-17T06:31:24;99801.88;;;6.47;60.35
69035;BME280;56091;55.756;37.412;2022-10-17T06:36:25;99794.03;;;6.52;60.60
69035;BME280;56091;55.756;37.412;2022-10-17T06:41:26;99773.22;;;6.79;59.65
69035;BME280;56091;55.756;37.412;2022-10-17T06:46:28;99769.91;;;7.09;58.78
69035;BME280;56091;55.756;37.412;2022-10-17T06:51:35;99765.47;;;7.21;58.64
69035;BME280;56091;55.756;37.412;2022-10-17T06:56:38;99765.91;;;7.18;58.47
69035;BME280;56091;55.756;37.412;2022-10-17T07:02:02;99749.72;;;7.24;58.45
69035;BME280;56091;55.756;37.412;2022-10-17T07:07:05;99762.22;;;7.12;58.38
69035;BME280;56091;55.756;37.412;2022-10-17T07:12:13;99764.91;;;7.12;58.74
69035;BME280;56091;55.756;37.412;2022-10-17T07:17:18;99754.09;;;7.00;59.08
69035;BME280;56091;55.756;37.412;2022-10-17T07:22:19;99771.56;;;7.10;59.51
69035;BME280;56091;55.756;37.412;2022-10-17T07:27:22;99760.97;;;7.15;59.51
69035;BME280;56091;55.756;37.412;2022-10-17T07:32:23;99733.88;;;6.98;59.40
69035;BME280;56091;55.756;37.412;2022-10-17T07:37:24;99756.25;;;7.10;59.58
69035;BME280;56091;55.756;37.412;2022-10-17T07:42:33;99747.56;;;6.90;60.36
69035;BME280;56091;55.756;37.412;2022-10-17T07:47:38;99736.56;;;6.98;60.39
69035;BME280;56091;55.756;37.412;2022-10-17T07:52:46;99740.63;;;6.82;61.55
69035;BME280;56091;55.756;37.412;2022-10-17T07:57:47;99742.69;;;6.80;68.29
69035;BME280;56091;55.756;37.412;2022-10-17T08:02:48;99755.22;;;6.29;73.90
69035;BME280;56091;55.756;37.412;2022-10-17T08:07:48;99734.28;;;6.13;72.87
69035;BME280;56091;55.756;37.412;2022-10-17T08:12:49;99731.91;;;6.30;71.17
69035;BME280;56091;55.756;37.412;2022-10-17T08:17:50;99769.41;;;6.36;71.13
69035;BME280;56091;55.756;37.412;2022-10-17T08:22:54;99724.47;;;6.63;71.05
69035;BME280;56091;55.756;37.412;2022-10-17T08:27:56;99742.03;;;6.84;69.27
69035;BME280;56091;55.756;37.412;2022-10-17T08:33:02;99760.06;;;6.77;68.06
69035;BME280;56091;55.756;37.412;2022-10-17T08:38:03;99727.00;;;6.83;67.16
69035;BME280;56091;55.756;37.412;2022-10-17T08:44:07;99732.66;;;6.94;66.67
69035;BME280;56091;55.756;37.412;2022-10-17T08:48:48;99728.50;;;6.98;66.39
69035;BME280;56091;55.756;37.412;2022-10-17T08:54:04;99769.84;;;6.90;67.15
69035;BME280;56091;55.756;37.412;2022-10-17T08:59:37;99770.22;;;6.69;72.63
69035;BME280;56091;55.756;37.412;2022-10-17T09:26:40;99746.81;;;5.67;85.86
69035;BME280;56091;55.756;37.412;2022-10-17T09:32:13;99729.53;;;5.63;86.66
69035;BME280;56091;55.756;37.412;2022-10-17T09:37:16;99706.19;;;5.83;87.43
69035;BME280;56091;55.756;37.412;2022-10-17T09:42:19;99705.56;;;5.81;86.02
69035;BME280;56091;55.756;37.412;2022-10-17T09:48:06;99706.16;;;5.90;84.84
69035;BME280;56091;55.756;37.412;2022-10-17T09:53:13;99695.44;;;5.90;85.10
69035;BME280;56091;55.756;37.412;2022-10-17T09:58:15;99687.19;;;5.92;84.05
69035;BME280;56091;55.756;37.412;2022-10-17T10:03:24;99693.03;;;6.20;82.54
69035;BME280;56091;55.756;37.412;2022-10-17T10:08:28;99682.84;;;6.36;81.05
69035;BME280;56091;55.756;37.412;2022-10-17T10:13:31;99665.81;;;6.49;81.49
69035;BME280;56091;55.756;37.412;2022-10-17T10:18:35;99656.63;;;6.38;80.07
69035;BME280;56091;55.756;37.412;2022-10-17T10:23:41;99642.47;;;6.56;79.82
69035;BME280;56091;55.756;37.412;2022-10-17T10:28:59;99655.81;;;6.62;78.92
69035;BME280;56091;55.756;37.412;2022-10-17T10:34:21;99658.44;;;6.69;78.99
69035;BME280;56091;55.756;37.412;2022-10-17T10:39:56;99644.13;;;6.75;78.35
69035;BME280;56091;55.756;37.412;2022-10-17T10:45:15;99665.06;;;6.67;78.66
69035;BME280;56091;55.756;37.412;2022-10-17T10:55:45;99614.44;;;6.77;78.43
69035;BME280;56091;55.756;37.412;2022-10-17T11:00:50;99624.78;;;6.73;78.49
69035;BME280;56091;55.756;37.412;2022-10-17T11:06:16;99608.69;;;6.55;79.08
69035;BME280;56091;55.756;37.412;2022-10-17T11:11:28;99612.13;;;6.80;79.19
69035;BME280;56091;55.756;37.412;2022-10-17T11:16:44;99616.50;;;6.75;79.52
69035;BME280;56091;55.756;37.412;2022-10-17T11:22:01;99644.59;;;6.72;80.05
69035;BME280;56091;55.756;37.412;2022-10-17T11:27:06;99624.78;;;6.73;80.91
69035;BME280;56091;55.756;37.412;2022-10-17T11:32:18;99597.44;;;6.64;80.97
69035;BME280;56091;55.756;37.412;2022-10-17T11:37:24;99600.00;;;6.78;81.21
69035;BME280;56091;55.756;37.412;2022-10-17T11:42:31;99615.91;;;6.73;81.71
69035;BME280;56091;55.756;37.412;2022-10-17T11:47:43;99601.69;;;6.72;82.18
69035;BME280;56091;55.756;37.412;2022-10-17T11:52:49;99586.63;;;6.71;82.65
69035;BME280;56091;55.756;37.412;2022-10-17T12:03:18;99574.44;;;6.75;82.80
69035;BME280;56091;55.756;37.412;2022-10-17T12:18:32;99546.44;;;6.71;83.75
69035;BME280;56091;55.756;37.412;2022-10-17T12:23:32;99560.81;;;6.77;84.02
69035;BME280;56091;55.756;37.412;2022-10-17T12:28:45;99568.78;;;6.83;84.00
69035;BME280;56091;55.756;37.412;2022-10-17T12:33:48;99542.25;;;6.57;83.89
69035;BME280;56091;55.756;37.412;2022-10-17T12:54:21;99601.19;;;6.82;84.59
69035;BME280;56091;55.756;37.412;2022-10-17T12:59:27;99624.41;;;6.88;84.81
69035;BME280;56091;55.756;37.412;2022-10-17T13:04:29;99623.78;;;6.93;84.65
69035;BME280;56091;55.756;37.412;2022-10-17T13:09:37;99661.22;;;6.99;84.33
69035;BME280;56091;55.756;37.412;2022-10-17T13:14:42;99667.41;;;7.00;84.46
69035;BME280;56091;55.756;37.412;2022-10-17T13:19:45;99649.16;;;6.90;84.29
69035;BME280;56091;55.756;37.412;2022-10-17T13:24:48;99646.00;;;6.75;84.67
69035;BME280;56091;55.756;37.412;2022-10-17T13:29:48;99666.38;;;7.01;84.92
69035;BME280;56091;55.756;37.412;2022-10-17T13:35:14;99670.25;;;7.05;84.78
69035;BME280;56091;55.756;37.412;2022-10-17T13:40:30;99640.59;;;7.00;84.72
69035;BME280;56091;55.756;37.412;2022-10-17T13:45:36;99632.28;;;7.08;84.83
69035;BME280;56091;55.756;37.412;2022-10-17T13:50:42;99442.28;;;5.94;84.87
69035;BME280;56091;55.756;37.412;2022-10-17T14:00:57;99600.72;;;7.22;84.25
69035;BME280;56091;55.756;37.412;2022-10-17T14:11:43;99596.81;;;7.06;84.59
69035;BME280;56091;55.756;37.412;2022-10-17T14:16:45;99589.50;;;6.95;85.24
69035;BME280;56091;55.756;37.412;2022-10-17T14:21:47;99558.97;;;6.77;85.45
69035;BME280;56091;55.756;37.412;2022-10-17T14:26:50;99600.66;;;6.92;85.69
69035;BME280;56091;55.756;37.412;2022-10-17T14:32:18;99603.94;;;6.94;85.67
69035;BME280;56091;55.756;37.412;2022-10-17T14:37:41;99598.13;;;6.97;85.57
69035;BME280;56091;55.756;37.412;2022-10-17T14:42:44;99624.38;;;6.95;85.49
69035;BME280;56091;55.756;37.412;2022-10-17T14:47:48;99597.53;;;6.95;85.73
69035;BME280;56091;55.756;37.412;2022-10-17T14:53:00;99583.53;;;6.93;85.88
69035;BME280;56091;55.756;37.412;2022-10-17T14:58:18;99606.25;;;6.90;86.15
69035;BME280;56091;55.756;37.412;2022-10-17T15:03:22;99592.41;;;6.93;86.18
69035;BME280;56091;55.756;37.412;2022-10-17T15:08:23;99606.94;;;6.86;86.04
69035;BME280;56091;55.756;37.412;2022-10-17T15:13:24;99636.94;;;6.94;86.28
69035;BME280;56091;55.756;37.412;2022-10-17T15:18:24;99597.91;;;6.80;86.19
69035;BME280;56091;55.756;37.412;2022-10-17T15:23:25;99605.78;;;6.75;86.33
69035;BME280;56091;55.756;37.412;2022-10-17T15:28:29;99623.25;;;7.02;86.29
69035;BME280;56091;55.756;37.412;2022-10-17T15:33:30;99630.41;;;7.09;86.13
69035;BME280;56091;55.756;37.412;2022-10-17T15:38:30;99627.13;;;7.25;85.71
69035;BME280;56091;55.756;37.412;2022-10-17T15:43:31;99631.16;;;7.34;85.10
69035;BME280;56091;55.756;37.412;2022-10-17T15:48:32;99643.50;;;7.35;85.06
69035;BME280;56091;55.756;37.412;2022-10-17T15:53:33;99624.66;;;7.42;84.98
69035;BME280;56091;55.756;37.412;2022-10-17T15:58:37;99627.38;;;7.54;84.85
69035;BME280;56091;55.756;37.412;2022-10-17T16:03:39;99587.63;;;7.32;84.48
69035;BME280;56091;55.756;37.412;2022-10-17T16:08:44;99632.00;;;7.65;84.64
69035;BME280;56091;55.756;37.412;2022-10-17T16:13:53;99611.66;;;7.57;84.46
69035;BME280;56091;55.756;37.412;2022-10-17T16:18:55;99624.41;;;7.74;84.38
69035;BME280;56091;55.756;37.412;2022-10-17T16:23:56;99624.56;;;7.79;84.11
69035;BME280;56091;55.756;37.412;2022-10-17T16:29:00;99614.97;;;7.71;84.06
69035;BME280;56091;55.756;37.412;2022-10-17T16:34:03;99626.81;;;7.82;83.99
69035;BME280;56091;55.756;37.412;2022-10-17T16:39:06;99625.50;;;7.73;83.89
69035;BME280;56091;55.756;37.412;2022-10-17T16:44:10;99638.88;;;7.91;83.67
69035;BME280;56091;55.756;37.412;2022-10-17T16:49:14;99618.03;;;7.75;83.58
69035;BME280;56091;55.756;37.412;2022-10-17T16:54:17;99653.34;;;7.90;83.87
69035;BME280;56091;55.756;37.412;2022-10-17T16:59:18;99667.28;;;7.99;83.83
69035;BME280;56091;55.756;37.412;2022-10-17T17:04:20;99663.41;;;7.95;83.81
69035;BME280;56091;55.756;37.412;2022-10-17T17:09:21;99654.50;;;7.94;83.50
69035;BME280;56091;55.756;37.412;2022-10-17T17:14:22;99686.34;;;8.09;83.49
69035;BME280;56091;55.756;37.412;2022-10-17T17:19:23;99665.00;;;8.14;83.50
69035;BME280;56091;55.756;37.412;2022-10-17T17:24:24;99651.91;;;8.18;83.59
69035;BME280;56091;55.756;37.412;2022-10-17T17:29:27;99648.06;;;8.14;83.85
69035;BME280;56091;55.756;37.412;2022-10-17T17:34:28;99661.00;;;8.17;83.87
69035;BME280;56091;55.756;37.412;2022-10-17T17:39:29;99657.28;;;8.18;83.76
69035;BME280;56091;55.756;37.412;2022-10-17T17:44:30;99658.69;;;8.20;83.56
69035;BME280;56091;55.756;37.412;2022-10-17T17:49:33;99655.28;;;8.13;83.66
69035;BME280;56091;55.756;37.412;2022-10-17T17:54:33;99666.97;;;8.19;83.76
69035;BME280;56091;55.756;37.412;2022-10-17T17:59:34;99642.34;;;8.22;83.66
69035;BME280;56091;55.756;37.412;2022-10-17T18:04:36;99649.34;;;8.23;83.70
69035;BME280;56091;55.756;37.412;2022-10-17T18:09:37;99661.38;;;8.20;83.62
69035;BME280;56091;55.756;37.412;2022-10-17T18:14:38;99666.94;;;8.07;83.75
69035;BME280;56091;55.756;37.412;2022-10-17T18:19:39;99664.66;;;8.23;83.65
69035;BME280;56091;55.756;37.412;2022-10-17T18:24:40;99669.66;;;8.19;83.87
69035;BME280;56091;55.756;37.412;2022-10-17T18:29:41;99667.34;;;8.23;83.93
69035;BME280;56091;55.756;37.412;2022-10-17T18:34:45;99629.91;;;7.97;83.97
69035;BME280;56091;55.756;37.412;2022-10-17T18:39:46;99686.06;;;8.29;83.76
69035;BME280;56091;55.756;37.412;2022-10-17T18:44:50;99678.59;;;8.31;83.77
69035;BME280;56091;55.756;37.412;2022-10-17T18:49:51;99686.97;;;8.23;83.98
69035;BME280;56091;55.756;37.412;2022-10-17T18:54:52;99675.50;;;8.16;84.35
69035;BME280;56091;55.756;37.412;2022-10-17T18:59:53;99700.72;;;8.15;84.67
69035;BME280;56091;55.756;37.412;2022-10-17T19:04:54;99691.72;;;8.09;85.18
69035;BME280;56091;55.756;37.412;2022-10-17T19:09:59;99690.16;;;8.01;85.60
69035;BME280;56091;55.756;37.412;2022-10-17T19:14:59;99692.50;;;7.98;85.87
69035;BME280;56091;55.756;37.412;2022-10-17T19:20:00;99683.69;;;7.91;86.43
69035;BME280;56091;55.756;37.412;2022-10-17T19:25:03;99697.44;;;7.82;86.92
69035;BME280;56091;55.756;37.412;2022-10-17T19:30:04;99687.25;;;7.73;87.08
69035;BME280;56091;55.756;37.412;2022-10-17T19:35:06;99683.59;;;7.67;87.45
69035;BME280;56091;55.756;37.412;2022-10-17T19:40:07;99698.31;;;7.65;87.78
69035;BME280;56091;55.756;37.412;2022-10-17T19:45:08;99678.41;;;7.54;87.99
69035;BME280;56091;55.756;37.412;2022-10-17T19:50:09;99680.50;;;7.52;88.35
69035;BME280;56091;55.756;37.412;2022-10-17T19:55:10;99693.00;;;7.58;88.56
69035;BME280;56091;55.756;37.412;2022-10-17T20:00:11;99664.44;;;7.45;88.82
69035;BME280;56091;55.756;37.412;2022-10-17T20:05:12;99708.59;;;7.49;89.11
69035;BME280;56091;55.756;37.412;2022-10-17T20:10:13;99709.44;;;7.50;89.17
69035;BME280;56091;55.756;37.412;2022-10-17T20:15:13;99694.28;;;7.55;88.78
69035;BME280;56091;55.756;37.412;2022-10-17T20:20:14;99691.34;;;7.57;88.68
69035;BME280;56091;55.756;37.412;2022-10-17T20:25:15;99701.50;;;7.55;88.74
69035;BME280;56091;55.756;37.412;2022-10-17T20:30:16;99715.75;;;7.55;89.02
69035;BME280;56091;55.756;37.412;2022-10-17T20:35:18;99704.44;;;7.53;89.30
69035;BME280;56091;55.756;37.412;2022-10-17T20:40:20;99710.81;;;7.52;89.18
69035;BME280;56091;55.756;37.412;2022-10-17T20:45:21;99711.50;;;7.48;89.20
69035;BME280;56091;55.756;37.412;2022-10-17T20:50:22;99725.44;;;7.56;88.98
69035;BME280;56091;55.756;37.412;2022-10-17T20:55:23;99708.31;;;7.57;88.86
69035;BME280;56091;55.756;37.412;2022-10-17T21:00:24;99713.44;;;7.59;88.69
69035;BME280;56091;55.756;37.412;2022-10-17T21:05:25;99718.34;;;7.62;88.29
69035;BME280;56091;55.756;37.412;2022-10-17T21:10:34;99720.81;;;7.63;87.95
69035;BME280;56091;55.756;37.412;2022-10-17T21:15:34;99707.78;;;7.67;87.86
69035;BME280;56091;55.756;37.412;2022-10-17T21:20:35;99697.94;;;7.61;87.58
69035;BME280;56091;55.756;37.412;2022-10-17T21:25:37;99698.91;;;7.67;86.84
69035;BME280;56091;55.756;37.412;2022-10-17T21:30:38;99695.75;;;7.70;86.38
69035;BME280;56091;55.756;37.412;2022-10-17T21:35:39;99692.41;;;7.74;85.85
69035;BME280;56091;55.756;37.412;2022-10-17T21:40:39;99692.78;;;7.78;85.10
69035;BME280;56091;55.756;37.412;2022-10-17T21:45:43;99689.25;;;7.77;85.26
69035;BME280;56091;55.756;37.412;2022-10-17T21:50:43;99696.50;;;7.77;85.03
69035;BME280;56091;55.756;37.412;2022-10-17T21:55:44;99683.06;;;7.77;84.77
69035;BME280;56091;55.756;37.412;2022-10-17T22:00:45;99684.13;;;7.76;84.58
69035;BME280;56091;55.756;37.412;2022-10-17T22:05:46;99674.41;;;7.75;84.20
69035;BME280;56091;55.756;37.412;2022-10-17T22:10:49;99678.50;;;7.77;83.94
69035;BME280;56091;55.756;37.412;2022-10-17T22:15:50;99674.03;;;7.71;83.39
69035;BME280;56091;55.756;37.412;2022-10-17T22:20:51;99656.44;;;7.75;83.02
69035;BME280;56091;55.756;37.412;2022-10-17T22:25:56;99660.59;;;7.90;81.59
69035;BME280;56091;55.756;37.412;2022-10-17T22:30:58;99649.91;;;7.83;81.37
69035;BME280;56091;55.756;37.412;2022-10-17T22:35:58;99673.91;;;7.96;81.08
69035;BME280;56091;55.756;37.412;2022-10-17T22:40:59;99658.97;;;8.00;80.94
69035;BME280;56091;55.756;37.412;2022-10-17T22:46:04;99674.41;;;8.05;80.74
69035;BME280;56091;55.756;37.412;2022-10-17T22:51:05;99660.63;;;8.01;80.46
69035;BME280;56091;55.756;37.412;2022-10-17T22:56:09;99651.63;;;8.08;80.07
69035;BME280;56091;55.756;37.412;2022-10-17T23:01:16;99667.16;;;8.06;80.29
69035;BME280;56091;55.756;37.412;2022-10-17T23:06:18;99647.19;;;8.01;80.42
69035;BME280;56091;55.756;37.412;2022-10-17T23:11:20;99636.56;;;7.95;80.37
69035;BME280;56091;55.756;37.412;2022-10-17T23:16:21;99640.63;;;7.97;80.60
69035;BME280;56091;55.756;37.412;2022-10-17T23:21:22;99635.94;;;7.93;80.76
69035;BME280;56091;55.756;37.412;2022-10-17T23:26:23;99646.94;;;7.91;81.23
69035;BME280;56091;55.756;37.412;2022-10-17T23:31:25;99648.06;;;7.84;81.90
69035;BME280;56091;55.756;37.412;2022-10-17T23:36:25;99644.66;;;7.76;82.30
69035;BME280;56091;55.756;37.412;2022-10-17T23:41:29;99639.56;;;7.68;82.93
69035;BME280;56091;55.756;37.412;2022-10-17T23:46:30;99660.47;;;7.66;82.90
69035;BME280;56091;55.756;37.412;2022-10-17T23:51:34;99642.72;;;7.65;82.60
69035;BME280;56091;55.756;37.412;2022-10-17T23:56:35;99616.81;;;7.59;82.28
